Time;durP1;ratioP1;P1;durP2;ratioP2;P2;SDS_P1;SDS_P2;PMS_P1;PMS_P2;Temp;Humidity;BMP_temperature;BMP_pressure;BME280_temperature;BME280_humidity;BME280_pressure;Samples;Min_cycle;Max_cycle;Signal;HPM_P1;HPM_P2
2023/12/06 00:01:22;;;;;;;;;;;0.80;99.90;;;;;;4987129;28;19935;-74
2023/12/06 00:03:48;;;;;;;;;;;0.80;99.90;;;;;;4967088;28;20554;-74
2023/12/06 00:06:14;;;;;;;;;;;0.80;99.90;;;;;;4959413;28;20943;-74
2023/12/06 00:08:40;;;;;;;;;;;0.80;99.90;;;;;;4960865;28;19924;-74
2023/12/06 00:11:06;;;;;;;;;;;0.80;99.90;;;;;;5006195;28;19944;-74
2023/12/06 00:13:32;;;;;;;;;;;0.80;99.90;;;;;;4980368;28;20630;-74
2023/12/06 00:15:58;;;;;;;;;;;0.80;99.90;;;;;;4997766;28;20798;-74
2023/12/06 00:18:24;;;;;;;;;;;0.70;99.90;;;;;;4976933;28;19928;-74
2023/12/06 00:20:50;;;;;;;;;;;0.80;99.90;;;;;;5000606;28;19925;-74
2023/12/06 00:23:16;;;;;;;;;;;0.80;99.90;;;;;;4963340;28;20389;-74
2023/12/06 00:25:42;;;;;;;;;;;0.80;99.90;;;;;;4967406;28;20555;-74
2023/12/06 00:28:07;;;;;;;;;;;0.80;99.90;;;;;;4965715;28;19929;-73
2023/12/06 00:30:33;;;;;;;;;;;0.80;99.90;;;;;;4956219;28;19932;-74
2023/12/06 00:32:59;;;;;;;;;;;0.80;99.90;;;;;;4963685;28;19936;-74
2023/12/06 00:35:25;;;;;;;;;;;0.80;99.90;;;;;;4968363;28;19933;-74
2023/12/06 00:37:51;;;;;;;;;;;0.80;99.90;;;;;;4941447;28;20314;-75
2023/12/06 00:40:17;;;;;;;;;;;0.80;99.90;;;;;;4994469;28;19940;-75
2023/12/06 00:42:43;;;;;;;;;;;0.80;99.90;;;;;;4962064;28;19956;-73
2023/12/06 00:45:09;;;;;;;;;;;0.80;99.90;;;;;;5012381;28;19925;-74
2023/12/06 00:47:36;;;;;;;;;;;0.80;99.90;;;;;;4952078;28;19925;-74
2023/12/06 00:50:03;;;;;;;;;;;0.80;99.90;;;;;;4988912;28;19924;-75
2023/12/06 00:52:29;;;;;;;;;;;0.90;99.90;;;;;;4972388;28;19932;-74
2023/12/06 00:54:55;;;;;;;;;;;0.90;99.90;;;;;;4973445;28;19929;-74
2023/12/06 00:57:20;;;;;;;;;;;0.90;99.90;;;;;;4982850;28;19925;-73
2023/12/06 00:59:46;;;;;;;;;;;0.90;99.90;;;;;;4939102;28;19928;-74
2023/12/06 01:02:12;;;;;;;;;;;0.90;99.90;;;;;;4980713;28;19929;-74
2023/12/06 01:04:38;;;;;;;;;;;0.90;99.90;;;;;;4970541;28;21188;-74
2023/12/06 01:07:04;;;;;;;;;;;0.90;99.90;;;;;;4978787;28;19948;-74
2023/12/06 01:09:30;;;;;;;;;;;0.90;99.90;;;;;;4969438;28;19929;-75
2023/12/06 01:11:57;;;;;;;;;;;0.90;99.90;;;;;;4981755;28;19925;-74
2023/12/06 01:14:23;;;;;;;;;;;0.90;99.90;;;;;;4963557;28;19943;-74
2023/12/06 01:16:49;;;;;;;;;;;0.90;99.90;;;;;;4982156;28;19929;-74
2023/12/06 01:19:16;;;;;;;;;;;0.90;99.90;;;;;;4975771;28;19929;-74
2023/12/06 01:21:42;;;;;;;;;;;0.90;99.90;;;;;;4979115;28;20004;-73
2023/12/06 01:24:08;;;;;;;;;;;0.90;99.90;;;;;;4973406;28;19924;-75
2023/12/06 01:26:34;;;;;;;;;;;0.90;99.90;;;;;;4986066;28;19924;-74
2023/12/06 01:29:03;;;;;;;;;;;0.90;99.90;;;;;;4960104;28;19929;-74
2023/12/06 01:31:29;;;;;;;;;;;0.90;99.90;;;;;;4986441;28;20410;-74
2023/12/06 01:33:55;;;;;;;;;;;0.90;99.90;;;;;;4967756;28;20501;-75
2023/12/06 01:36:21;;;;;;;;;;;0.90;99.90;;;;;;4992904;28;19925;-75
2023/12/06 01:38:48;;;;;;;;;;;0.90;99.90;;;;;;4968482;28;19932;-75
2023/12/06 01:41:13;;;;;;;;;;;0.90;99.90;;;;;;4996835;28;19932;-74
2023/12/06 01:43:43;;;;;;;;;;;0.90;99.90;;;;;;4961874;28;19925;-75
2023/12/06 01:46:09;;;;;;;;;;;0.90;99.90;;;;;;4989222;28;19925;-74
2023/12/06 01:48:36;;;;;;;;;;;0.90;99.90;;;;;;4962460;28;20296;-74
2023/12/06 01:51:02;;;;;;;;;;;0.90;99.90;;;;;;4982751;28;20422;-74
2023/12/06 01:53:28;;;;;;;;;;;0.90;99.90;;;;;;4960676;28;19935;-73
2023/12/06 01:55:54;;;;;;;;;;;0.90;99.90;;;;;;4986998;28;19929;-74
2023/12/06 01:58:21;;;;;;;;;;;0.90;99.90;;;;;;4962713;28;19928;-74
2023/12/06 02:00:47;;;;;;;;;;;0.90;99.90;;;;;;4990799;28;19929;-73
2023/12/06 02:03:14;;;;;;;;;;;0.90;99.90;;;;;;4964728;28;19925;-74
2023/12/06 02:05:40;;;;;;;;;;;0.90;99.90;;;;;;4967386;28;20356;-73
2023/12/06 02:08:06;;;;;;;;;;;0.90;99.90;;;;;;4952785;28;19932;-74
2023/12/06 02:10:32;;;;;;;;;;;0.90;99.90;;;;;;4956103;28;19925;-74
2023/12/06 02:12:58;;;;;;;;;;;0.90;99.90;;;;;;4935516;28;19929;-75
2023/12/06 02:15:24;;;;;;;;;;;0.90;99.90;;;;;;4963769;28;19921;-75
2023/12/06 02:17:51;;;;;;;;;;;0.90;99.90;;;;;;4920702;28;20165;-74
2023/12/06 02:20:17;;;;;;;;;;;0.90;99.90;;;;;;4950891;28;19941;-75
2023/12/06 02:22:43;;;;;;;;;;;0.90;99.90;;;;;;4937580;28;19926;-74
2023/12/06 02:25:10;;;;;;;;;;;0.90;99.90;;;;;;4972659;28;19952;-73
2023/12/06 02:27:39;;;;;;;;;;;0.90;99.90;;;;;;4935438;28;19925;-74
2023/12/06 02:30:05;;;;;;;;;;;0.90;99.90;;;;;;4987529;28;19925;-73
2023/12/06 02:32:31;;;;;;;;;;;1.00;99.90;;;;;;4964609;28;19932;-73
2023/12/06 02:34:58;;;;;;;;;;;1.00;99.90;;;;;;4972689;28;19925;-73
2023/12/06 02:37:24;;;;;;;;;;;0.90;99.90;;;;;;4967801;28;20887;-73
2023/12/06 02:39:51;;;;;;;;;;;1.00;99.90;;;;;;4987910;28;20085;-73
2023/12/06 02:42:17;;;;;;;;;;;1.00;99.90;;;;;;4985502;28;19932;-74
2023/12/06 02:44:43;;;;;;;;;;;0.90;99.90;;;;;;4979815;28;19928;-74
2023/12/06 02:47:10;;;;;;;;;;;0.90;99.90;;;;;;4982824;28;19932;-73
2023/12/06 02:49:36;;;;;;;;;;;0.90;99.90;;;;;;4963568;28;20391;-73
2023/12/06 02:52:02;;;;;;;;;;;1.00;99.90;;;;;;4986397;28;19925;-73
2023/12/06 02:54:27;;;;;;;;;;;1.00;99.90;;;;;;4971900;28;19959;-73
2023/12/06 02:56:53;;;;;;;;;;;1.00;99.90;;;;;;4986948;28;21007;-73
2023/12/06 02:59:19;;;;;;;;;;;1.00;99.90;;;;;;4978824;28;19940;-72
2023/12/06 03:01:46;;;;;;;;;;;1.00;99.90;;;;;;5015959;28;20062;-73
2023/12/06 03:04:12;;;;;;;;;;;1.00;99.90;;;;;;4972987;28;20513;-73
2023/12/06 03:06:38;;;;;;;;;;;1.00;99.90;;;;;;4966433;28;19925;-74
2023/12/06 03:09:05;;;;;;;;;;;1.00;99.90;;;;;;4967575;28;20288;-73
2023/12/06 03:11:31;;;;;;;;;;;1.00;99.90;;;;;;4982948;28;19925;-74
2023/12/06 03:13:56;;;;;;;;;;;1.00;99.90;;;;;;4957148;28;19931;-73
2023/12/06 03:16:22;;;;;;;;;;;1.10;99.90;;;;;;4966540;28;20553;-73
2023/12/06 03:18:50;;;;;;;;;;;1.00;99.90;;;;;;4969677;28;19928;-74
2023/12/06 03:21:16;;;;;;;;;;;1.00;99.90;;;;;;4986842;28;19936;-74
2023/12/06 03:23:42;;;;;;;;;;;1.00;99.90;;;;;;4965552;28;19925;-73
2023/12/06 03:26:08;;;;;;;;;;;1.00;99.90;;;;;;4992723;28;19929;-74
2023/12/06 03:28:34;;;;;;;;;;;1.00;99.90;;;;;;4959204;28;19925;-73
2023/12/06 03:31:00;;;;;;;;;;;1.00;99.90;;;;;;4985177;28;19924;-72
2023/12/06 03:33:26;;;;;;;;;;;1.00;99.90;;;;;;4962249;28;19935;-73
2023/12/06 03:35:52;;;;;;;;;;;1.00;99.90;;;;;;4994301;28;20406;-73
2023/12/06 03:38:18;;;;;;;;;;;1.00;99.90;;;;;;4957004;28;20016;-72
2023/12/06 03:40:44;;;;;;;;;;;1.00;99.90;;;;;;4996947;28;19929;-73
2023/12/06 03:43:10;;;;;;;;;;;1.00;99.90;;;;;;4961071;28;20318;-73
2023/12/06 03:45:36;;;;;;;;;;;1.10;99.90;;;;;;4984273;28;20021;-73
2023/12/06 03:48:01;;;;;;;;;;;1.00;99.90;;;;;;4961515;28;19924;-74
2023/12/06 03:50:27;;;;;;;;;;;1.00;99.90;;;;;;5000719;28;19925;-73
2023/12/06 03:52:53;;;;;;;;;;;1.10;99.90;;;;;;4973444;28;20460;-73
2023/12/06 03:55:19;;;;;;;;;;;1.00;99.90;;;;;;4982491;28;19929;-73
2023/12/06 03:57:45;;;;;;;;;;;1.10;99.90;;;;;;4958746;28;19984;-74
2023/12/06 04:00:13;;;;;;;;;;;1.10;99.90;;;;;;4987701;28;20036;-74
2023/12/06 04:02:39;;;;;;;;;;;1.10;99.90;;;;;;4958544;28;19936;-73
2023/12/06 04:05:05;;;;;;;;;;;1.10;99.90;;;;;;4985211;28;19925;-73
2023/12/06 04:07:31;;;;;;;;;;;1.10;99.90;;;;;;4965737;28;19929;-73
2023/12/06 04:09:57;;;;;;;;;;;1.10;99.90;;;;;;4984762;28;19936;-73
2023/12/06 04:12:23;;;;;;;;;;;1.10;99.90;;;;;;4983133;28;19932;-74
2023/12/06 04:14:48;;;;;;;;;;;1.10;99.90;;;;;;4954674;28;19924;-73
2023/12/06 04:17:14;;;;;;;;;;;1.10;99.90;;;;;;4984807;28;19925;-75
2023/12/06 04:19:40;;;;;;;;;;;1.10;99.90;;;;;;4974123;28;20057;-73
2023/12/06 04:22:06;;;;;;;;;;;1.10;99.90;;;;;;4984042;28;20276;-73
2023/12/06 04:24:32;;;;;;;;;;;1.20;99.90;;;;;;4961927;28;20899;-74
2023/12/06 04:26:58;;;;;;;;;;;1.10;99.90;;;;;;4984178;28;20522;-73
2023/12/06 04:29:24;;;;;;;;;;;1.10;99.90;;;;;;4962840;28;21072;-73
2023/12/06 04:31:50;;;;;;;;;;;1.10;99.90;;;;;;4982554;28;19931;-73
2023/12/06 04:34:18;;;;;;;;;;;1.10;99.90;;;;;;4975498;28;20471;-73
2023/12/06 04:36:44;;;;;;;;;;;1.10;99.90;;;;;;4980767;28;19925;-74
2023/12/06 04:39:10;;;;;;;;;;;1.20;99.90;;;;;;4970699;28;19928;-73
2023/12/06 04:41:36;;;;;;;;;;;1.10;99.90;;;;;;4983392;28;20547;-73
2023/12/06 04:44:02;;;;;;;;;;;1.20;99.90;;;;;;4973626;28;19932;-73
2023/12/06 04:46:28;;;;;;;;;;;1.20;99.90;;;;;;4984546;28;21128;-73
2023/12/06 04:48:54;;;;;;;;;;;1.20;99.90;;;;;;4969404;28;19928;-73
2023/12/06 04:51:21;;;;;;;;;;;1.10;99.90;;;;;;4986455;28;19925;-73
2023/12/06 04:53:47;;;;;;;;;;;1.20;99.90;;;;;;4958834;28;20542;-73
2023/12/06 04:56:13;;;;;;;;;;;1.20;99.90;;;;;;4990682;28;20004;-74
2023/12/06 04:58:39;;;;;;;;;;;1.20;99.90;;;;;;4964554;28;19932;-73
2023/12/06 05:01:05;;;;;;;;;;;1.20;99.90;;;;;;4985647;28;19969;-73
2023/12/06 05:03:31;;;;;;;;;;;1.20;99.90;;;;;;4964226;28;20493;-72
2023/12/06 05:05:57;;;;;;;;;;;1.20;99.90;;;;;;4994599;28;19929;-73
2023/12/06 05:08:23;;;;;;;;;;;1.20;99.90;;;;;;4959285;28;19928;-72
2023/12/06 05:10:49;;;;;;;;;;;1.20;99.90;;;;;;4994050;28;21135;-72
2023/12/06 05:13:14;;;;;;;;;;;1.20;99.90;;;;;;4957234;28;19928;-73
2023/12/06 05:15:40;;;;;;;;;;;1.20;99.90;;;;;;4983896;28;20384;-72
2023/12/06 05:18:07;;;;;;;;;;;1.20;99.90;;;;;;4957036;28;20035;-72
2023/12/06 05:20:33;;;;;;;;;;;1.20;99.90;;;;;;4995379;28;20582;-72
2023/12/06 05:22:59;;;;;;;;;;;1.20;99.90;;;;;;4957844;28;19935;-73
2023/12/06 05:25:25;;;;;;;;;;;1.30;99.90;;;;;;5000861;28;19937;-73
2023/12/06 05:27:52;;;;;;;;;;;1.20;99.90;;;;;;4956040;28;19933;-72
2023/12/06 05:30:18;;;;;;;;;;;1.30;99.90;;;;;;4984862;28;21024;-74
2023/12/06 05:32:43;;;;;;;;;;;1.30;99.90;;;;;;4937791;28;19929;-73
2023/12/06 05:35:10;;;;;;;;;;;1.30;99.90;;;;;;4961345;28;19929;-73
2023/12/06 05:37:36;;;;;;;;;;;1.30;99.90;;;;;;4953140;28;19925;-72
2023/12/06 05:40:03;;;;;;;;;;;1.30;99.90;;;;;;4983174;28;19936;-72
2023/12/06 05:42:29;;;;;;;;;;;1.30;99.90;;;;;;4975391;28;19944;-72
2023/12/06 05:44:55;;;;;;;;;;;1.30;99.90;;;;;;4957599;28;20343;-72
2023/12/06 05:47:21;;;;;;;;;;;1.30;99.90;;;;;;4980516;28;19925;-72
2023/12/06 05:49:47;;;;;;;;;;;1.30;99.90;;;;;;4974008;28;19935;-72
2023/12/06 05:52:13;;;;;;;;;;;1.30;99.90;;;;;;4982933;28;20415;-72
2023/12/06 05:54:39;;;;;;;;;;;1.30;99.90;;;;;;4966693;28;19928;-72
2023/12/06 05:57:06;;;;;;;;;;;1.40;99.90;;;;;;4982741;28;19925;-72
2023/12/06 05:59:32;;;;;;;;;;;1.40;99.90;;;;;;4938350;28;19928;-72
2023/12/06 06:01:58;;;;;;;;;;;1.40;99.90;;;;;;4980833;28;19932;-72
2023/12/06 06:04:24;;;;;;;;;;;1.50;99.90;;;;;;4970129;28;19936;-72
2023/12/06 06:06:50;;;;;;;;;;;1.40;99.90;;;;;;4980811;28;19924;-73
2023/12/06 06:09:15;;;;;;;;;;;1.40;99.90;;;;;;4959976;28;21006;-73
2023/12/06 06:11:41;;;;;;;;;;;1.40;99.90;;;;;;4962199;28;20040;-72
2023/12/06 06:14:07;;;;;;;;;;;1.50;99.90;;;;;;4970232;28;20408;-73
2023/12/06 06:16:33;;;;;;;;;;;1.50;99.90;;;;;;4984013;28;20047;-73
2023/12/06 06:18:59;;;;;;;;;;;1.50;99.90;;;;;;4953320;28;19929;-72
2023/12/06 06:21:25;;;;;;;;;;;1.50;99.90;;;;;;4982777;28;19963;-72
2023/12/06 06:23:51;;;;;;;;;;;1.50;99.90;;;;;;4967856;28;20024;-71
2023/12/06 06:26:17;;;;;;;;;;;1.50;99.90;;;;;;4984778;28;20019;-71
2023/12/06 06:28:43;;;;;;;;;;;1.50;99.90;;;;;;4955014;28;19925;-73
2023/12/06 06:31:09;;;;;;;;;;;1.50;99.90;;;;;;4989661;28;20829;-73
2023/12/06 06:33:35;;;;;;;;;;;1.50;99.90;;;;;;4957697;28;19931;-73
2023/12/06 06:36:01;;;;;;;;;;;1.50;99.90;;;;;;4984330;28;19940;-74
2023/12/06 06:38:27;;;;;;;;;;;1.50;99.90;;;;;;4983555;28;19972;-75
2023/12/06 06:40:53;;;;;;;;;;;1.50;99.90;;;;;;4985431;28;20346;-74
2023/12/06 06:43:19;;;;;;;;;;;1.50;99.90;;;;;;4961360;28;19939;-74
2023/12/06 06:45:45;;;;;;;;;;;1.50;99.90;;;;;;4992707;28;20205;-74
2023/12/06 06:48:10;;;;;;;;;;;1.50;99.90;;;;;;4950899;28;19952;-74
2023/12/06 06:50:36;;;;;;;;;;;1.50;99.90;;;;;;4985379;28;20453;-74
2023/12/06 06:53:03;;;;;;;;;;;1.50;99.90;;;;;;4961850;28;19925;-73
2023/12/06 06:55:30;;;;;;;;;;;1.50;99.90;;;;;;4999507;28;21399;-74
2023/12/06 06:58:03;;;;;;;;;;;1.60;99.90;;;;;;4954469;28;19928;-70
2023/12/06 07:00:29;;;;;;;;;;;1.60;99.90;;;;;;4993438;28;19934;-73
2023/12/06 07:02:55;;;;;;;;;;;1.60;99.90;;;;;;4956500;28;19928;-73
2023/12/06 07:05:21;;;;;;;;;;;1.60;99.90;;;;;;4986203;28;19931;-73
2023/12/06 07:07:47;;;;;;;;;;;1.60;99.90;;;;;;4955937;28;20085;-74
2023/12/06 07:10:13;;;;;;;;;;;1.50;99.90;;;;;;4995591;28;19925;-73
2023/12/06 07:12:39;;;;;;;;;;;1.60;99.90;;;;;;4954503;28;19925;-73
2023/12/06 07:15:05;;;;;;;;;;;1.60;99.90;;;;;;4986188;28;19932;-73
2023/12/06 07:17:31;;;;;;;;;;;1.60;99.90;;;;;;4958161;28;20909;-71
2023/12/06 07:19:58;;;;;;;;;;;1.60;99.90;;;;;;4996376;28;20012;-73
2023/12/06 07:22:24;;;;;;;;;;;1.70;99.90;;;;;;4981286;28;19925;-73
2023/12/06 07:24:50;;;;;;;;;;;1.60;99.90;;;;;;4958283;28;19924;-74
2023/12/06 07:27:16;;;;;;;;;;;1.70;99.90;;;;;;4982284;28;20231;-73
2023/12/06 07:29:43;;;;;;;;;;;1.60;99.90;;;;;;4970957;28;19930;-73
2023/12/06 07:32:09;;;;;;;;;;;1.70;99.90;;;;;;5016310;28;19925;-74
2023/12/06 07:34:34;;;;;;;;;;;1.70;99.90;;;;;;4976044;28;20598;-74
2023/12/06 07:37:00;;;;;;;;;;;1.70;99.90;;;;;;4983496;28;19936;-74
2023/12/06 07:39:26;;;;;;;;;;;1.70;99.90;;;;;;4956925;28;19936;-73
2023/12/06 07:41:52;;;;;;;;;;;1.70;99.90;;;;;;4984109;28;19929;-73
2023/12/06 07:44:20;;;;;;;;;;;1.70;99.90;;;;;;4972068;28;19924;-73
2023/12/06 07:46:46;;;;;;;;;;;1.80;99.90;;;;;;4983436;28;20596;-72
2023/12/06 07:49:12;;;;;;;;;;;1.70;99.90;;;;;;4955801;28;19932;-73
2023/12/06 07:51:38;;;;;;;;;;;1.80;99.90;;;;;;4967237;28;19925;-73
2023/12/06 07:54:04;;;;;;;;;;;1.70;99.90;;;;;;4960594;28;19928;-72
2023/12/06 07:56:30;;;;;;;;;;;1.80;99.90;;;;;;4990653;28;20635;-72
2023/12/06 07:59:00;;;;;;;;;;;1.80;99.90;;;;;;4958603;28;19924;-73
2023/12/06 08:01:29;;;;;;;;;;;1.80;99.90;;;;;;4985463;28;19929;-72
2023/12/06 08:03:55;;;;;;;;;;;1.80;99.90;;;;;;4960487;28;19936;-73
2023/12/06 08:06:21;;;;;;;;;;;1.80;99.90;;;;;;4990103;28;19925;-73
2023/12/06 08:08:50;;;;;;;;;;;1.80;99.90;;;;;;4973592;28;19928;-75
2023/12/06 08:11:16;;;;;;;;;;;1.80;99.90;;;;;;5002489;28;19924;-71
2023/12/06 08:13:42;;;;;;;;;;;1.80;99.90;;;;;;4980938;28;19924;-70
2023/12/06 08:16:08;;;;;;;;;;;1.80;99.90;;;;;;5006536;28;19936;-71
2023/12/06 08:18:35;;;;;;;;;;;1.80;99.90;;;;;;4955461;28;19924;-71
2023/12/06 08:21:04;;;;;;;;;;;1.80;99.90;;;;;;4972635;28;19929;-71
2023/12/06 08:23:30;;;;;;;;;;;1.80;99.90;;;;;;4945834;28;19925;-71
2023/12/06 08:25:56;;;;;;;;;;;1.90;99.90;;;;;;4965925;28;19930;-71
2023/12/06 08:28:21;;;;;;;;;;;1.80;99.90;;;;;;4947347;28;20523;-73
2023/12/06 08:30:47;;;;;;;;;;;1.90;99.90;;;;;;4986271;28;19935;-72
2023/12/06 08:33:13;;;;;;;;;;;1.90;99.90;;;;;;4959588;28;20026;-73
2023/12/06 08:35:39;;;;;;;;;;;1.90;99.90;;;;;;4982566;28;20884;-71
2023/12/06 08:38:05;;;;;;;;;;;1.90;99.90;;;;;;4954653;28;19947;-72
2023/12/06 08:40:31;;;;;;;;;;;1.90;99.90;;;;;;4997887;28;19929;-72
2023/12/06 08:42:57;;;;;;;;;;;1.90;99.90;;;;;;4957682;28;19924;-72
2023/12/06 08:45:23;;;;;;;;;;;2.00;99.90;;;;;;4993189;28;19932;-71
2023/12/06 08:47:49;;;;;;;;;;;2.00;99.90;;;;;;4953149;28;20120;-71
2023/12/06 08:50:15;;;;;;;;;;;2.00;99.90;;;;;;5001326;28;19925;-69
2023/12/06 08:52:44;;;;;;;;;;;2.00;99.90;;;;;;4953786;28;19925;-70
2023/12/06 08:55:10;;;;;;;;;;;2.10;99.90;;;;;;4987044;28;20660;-70
2023/12/06 08:57:36;;;;;;;;;;;2.10;99.90;;;;;;4953451;28;19925;-70
2023/12/06 09:00:04;;;;;;;;;;;2.10;99.90;;;;;;5002003;28;19933;-70
2023/12/06 09:02:30;;;;;;;;;;;2.10;99.90;;;;;;4972503;28;19925;-71
2023/12/06 09:04:55;;;;;;;;;;;2.10;99.90;;;;;;4961304;28;20061;-71
2023/12/06 09:07:21;;;;;;;;;;;2.20;99.90;;;;;;4943988;28;19929;-71
2023/12/06 09:09:47;;;;;;;;;;;2.20;99.90;;;;;;4949519;28;19925;-72
2023/12/06 09:12:13;;;;;;;;;;;2.20;99.90;;;;;;4945099;28;20943;-71
2023/12/06 09:14:39;;;;;;;;;;;2.20;99.90;;;;;;4941038;28;19929;-71
2023/12/06 09:17:06;;;;;;;;;;;2.30;99.90;;;;;;4960894;28;20400;-71
2023/12/06 09:19:32;;;;;;;;;;;2.30;99.90;;;;;;4956526;28;19929;-71
2023/12/06 09:21:58;;;;;;;;;;;2.30;99.90;;;;;;4961029;28;19929;-71
2023/12/06 09:24:24;;;;;;;;;;;2.30;99.90;;;;;;4986614;28;21414;-72
2023/12/06 09:26:50;;;;;;;;;;;2.40;99.90;;;;;;4990040;28;20384;-70
2023/12/06 09:29:17;;;;;;;;;;;2.40;99.90;;;;;;4990595;28;19924;-70
2023/12/06 09:31:43;;;;;;;;;;;2.40;99.90;;;;;;4971934;28;19935;-71
2023/12/06 09:34:09;;;;;;;;;;;2.40;99.90;;;;;;4960870;28;19925;-73
2023/12/06 09:36:35;;;;;;;;;;;2.50;99.90;;;;;;4964353;28;19925;-71
2023/12/06 09:39:01;;;;;;;;;;;2.50;99.90;;;;;;4934750;28;20250;-71
2023/12/06 09:41:28;;;;;;;;;;;2.40;99.90;;;;;;4962766;28;19937;-72
2023/12/06 09:43:55;;;;;;;;;;;2.50;99.90;;;;;;4958017;28;20232;-72
2023/12/06 09:46:21;;;;;;;;;;;2.50;99.90;;;;;;4963595;28;19926;-72
2023/12/06 09:48:48;;;;;;;;;;;2.50;99.90;;;;;;4946884;28;19925;-72
2023/12/06 09:51:18;;;;;;;;;;;2.50;99.90;;;;;;4964698;28;19925;-71
2023/12/06 09:53:44;;;;;;;;;;;2.50;99.90;;;;;;4949170;28;19931;-72
2023/12/06 09:56:10;;;;;;;;;;;2.50;99.90;;;;;;4971960;28;19925;-72
2023/12/06 09:58:36;;;;;;;;;;;2.50;99.90;;;;;;4928780;28;19932;-71
2023/12/06 10:01:02;;;;;;;;;;;2.50;99.90;;;;;;4968491;28;20016;-73
2023/12/06 10:03:28;;;;;;;;;;;2.50;99.90;;;;;;4950111;28;19925;-74
2023/12/06 10:05:55;;;;;;;;;;;2.50;99.90;;;;;;4984083;28;20904;-74
2023/12/06 10:08:21;;;;;;;;;;;2.50;99.90;;;;;;4957956;28;19932;-73
2023/12/06 10:10:48;;;;;;;;;;;2.50;99.90;;;;;;4982884;28;19928;-74
2023/12/06 10:13:13;;;;;;;;;;;2.60;99.90;;;;;;4957729;28;19925;-74
2023/12/06 10:15:39;;;;;;;;;;;2.60;99.90;;;;;;4995353;28;20000;-74
2023/12/06 10:18:05;;;;;;;;;;;2.60;99.90;;;;;;4943767;28;19924;-74
2023/12/06 10:20:31;;;;;;;;;;;2.70;99.90;;;;;;5003038;28;20529;-74
2023/12/06 10:22:57;;;;;;;;;;;2.70;99.90;;;;;;4956380;28;19925;-75
2023/12/06 10:25:23;;;;;;;;;;;2.70;99.90;;;;;;4984259;28;19925;-75
2023/12/06 10:27:58;;;;;;;;;;;2.70;99.90;;;;;;4955243;28;20750;-75
2023/12/06 10:30:25;;;;;;;;;;;2.70;99.90;;;;;;4997614;28;19925;-73
2023/12/06 10:32:52;;;;;;;;;;;2.60;99.90;;;;;;4956463;28;19937;-74
2023/12/06 10:35:18;;;;;;;;;;;2.70;99.90;;;;;;4971691;28;19947;-73
2023/12/06 10:37:45;;;;;;;;;;;2.60;99.90;;;;;;4988773;28;20351;-74
2023/12/06 10:40:12;;;;;;;;;;;2.60;99.90;;;;;;4999696;28;19936;-74
2023/12/06 10:42:40;;;;;;;;;;;2.70;99.90;;;;;;4953701;28;20441;-74
2023/12/06 10:45:06;;;;;;;;;;;2.70;99.90;;;;;;5002660;28;19925;-72
2023/12/06 10:47:33;;;;;;;;;;;2.70;99.90;;;;;;4960810;28;19925;-72
2023/12/06 10:50:00;;;;;;;;;;;2.70;99.90;;;;;;4981058;28;19940;-71
2023/12/06 10:52:28;;;;;;;;;;;2.80;99.90;;;;;;4981859;28;19925;-72
2023/12/06 10:54:55;;;;;;;;;;;2.80;99.90;;;;;;4951175;28;19925;-71
2023/12/06 10:57:21;;;;;;;;;;;2.80;99.90;;;;;;4981236;28;19925;-71
2023/12/06 10:59:47;;;;;;;;;;;2.80;99.90;;;;;;4956594;28;19944;-71
2023/12/06 11:02:13;;;;;;;;;;;2.80;99.90;;;;;;4982308;28;19929;-71
2023/12/06 11:04:42;;;;;;;;;;;2.80;99.90;;;;;;4971868;28;19925;-71
2023/12/06 11:07:20;;;;;;;;;;;2.90;99.90;;;;;;4984618;28;19925;-72
2023/12/06 11:10:02;;;;;;;;;;;2.90;99.90;;;;;;4979433;28;19928;-71
2023/12/06 11:12:48;;;;;;;;;;;2.90;99.90;;;;;;4978722;28;20036;-72
2023/12/06 11:15:18;;;;;;;;;;;3.00;99.90;;;;;;4985093;28;19963;-71
2023/12/06 11:17:46;;;;;;;;;;;3.00;99.90;;;;;;4975066;28;20932;-70
2023/12/06 11:20:13;;;;;;;;;;;3.00;99.90;;;;;;5000793;28;19936;-71
2023/12/06 11:22:40;;;;;;;;;;;3.00;99.90;;;;;;4958035;28;19933;-73
2023/12/06 11:25:07;;;;;;;;;;;3.10;99.90;;;;;;4982967;28;21037;-71
2023/12/06 11:27:33;;;;;;;;;;;3.10;99.90;;;;;;4959615;28;20494;-72
2023/12/06 11:30:00;;;;;;;;;;;3.10;99.90;;;;;;4991681;28;20039;-71
2023/12/06 11:32:42;;;;;;;;;;;3.20;99.90;;;;;;4985119;28;20010;-75
2023/12/06 11:35:15;;;;;;;;;;;3.10;99.90;;;;;;4962721;28;19960;-74
2023/12/06 11:37:53;;;;;;;;;;;3.20;99.90;;;;;;5007251;28;19924;-73
2023/12/06 11:40:27;;;;;;;;;;;3.10;99.90;;;;;;4975241;28;19927;-73
2023/12/06 11:42:57;;;;;;;;;;;3.20;99.90;;;;;;4998832;28;19924;-76
2023/12/06 11:45:24;;;;;;;;;;;3.20;99.90;;;;;;4960097;28;20944;-75
2023/12/06 11:47:52;;;;;;;;;;;3.10;99.90;;;;;;4940730;28;19934;-75
2023/12/06 11:50:19;;;;;;;;;;;3.10;99.90;;;;;;4974655;28;19925;-75
2023/12/06 11:52:51;;;;;;;;;;;3.10;99.90;;;;;;4942690;28;19932;-75
2023/12/06 11:55:18;;;;;;;;;;;3.10;99.90;;;;;;4989635;28;20522;-78
2023/12/06 11:58:00;;;;;;;;;;;3.10;99.90;;;;;;4956271;28;19925;-75
2023/12/06 12:00:27;;;;;;;;;;;3.10;99.90;;;;;;4982965;28;19929;-74
2023/12/06 12:02:53;;;;;;;;;;;3.10;99.90;;;;;;4945316;28;19925;-75
2023/12/06 12:05:19;;;;;;;;;;;3.10;99.90;;;;;;4991204;28;19932;-75
2023/12/06 12:07:46;;;;;;;;;;;3.20;99.90;;;;;;4964461;28;19967;-75
2023/12/06 12:10:12;;;;;;;;;;;3.10;99.90;;;;;;4955074;28;19944;-75
2023/12/06 12:12:38;;;;;;;;;;;3.10;99.90;;;;;;4936587;28;20521;-75
2023/12/06 12:15:04;;;;;;;;;;;3.10;99.90;;;;;;5005807;28;20767;-75
2023/12/06 12:17:30;;;;;;;;;;;3.10;99.90;;;;;;4971455;28;19925;-75
2023/12/06 12:19:56;;;;;;;;;;;3.10;99.90;;;;;;4980211;28;19932;-75
2023/12/06 12:22:22;;;;;;;;;;;3.10;99.90;;;;;;4984671;28;19933;-75
2023/12/06 12:24:48;;;;;;;;;;;3.10;99.90;;;;;;4970466;28;20123;-75
2023/12/06 12:27:18;;;;;;;;;;;3.10;99.90;;;;;;4965425;28;19956;-74
2023/12/06 12:29:44;;;;;;;;;;;3.10;99.90;;;;;;4969564;28;19924;-75
2023/12/06 12:32:10;;;;;;;;;;;3.10;99.90;;;;;;4981880;28;21019;-75
2023/12/06 12:34:37;;;;;;;;;;;3.10;99.90;;;;;;4959701;28;20125;-75
2023/12/06 12:37:03;;;;;;;;;;;3.10;99.90;;;;;;4980902;28;20764;-74
2023/12/06 12:39:29;;;;;;;;;;;3.10;99.90;;;;;;4960005;28;20499;-73
2023/12/06 12:41:55;;;;;;;;;;;3.10;99.90;;;;;;4961522;28;19936;-73
2023/12/06 12:44:21;;;;;;;;;;;3.10;99.90;;;;;;4956565;28;19947;-74
2023/12/06 12:46:47;;;;;;;;;;;3.10;99.90;;;;;;4983410;28;19925;-73
2023/12/06 12:49:13;;;;;;;;;;;3.10;99.90;;;;;;4958631;28;19929;-73
2023/12/06 12:51:39;;;;;;;;;;;3.20;99.90;;;;;;4983242;28;19925;-74
2023/12/06 12:54:04;;;;;;;;;;;3.20;99.90;;;;;;4967568;28;19928;-74
2023/12/06 12:56:30;;;;;;;;;;;3.20;99.90;;;;;;4982654;28;19941;-72
2023/12/06 12:58:57;;;;;;;;;;;3.20;99.90;;;;;;4965502;28;19955;-73
2023/12/06 13:01:24;;;;;;;;;;;3.20;99.90;;;;;;4982487;28;19933;-73
2023/12/06 13:03:51;;;;;;;;;;;3.20;99.90;;;;;;4958283;28;19924;-74
2023/12/06 13:06:17;;;;;;;;;;;3.30;99.90;;;;;;4982195;28;20985;-74
2023/12/06 13:08:43;;;;;;;;;;;3.20;99.90;;;;;;4961771;28;19928;-73
2023/12/06 13:11:09;;;;;;;;;;;3.30;99.90;;;;;;4984572;28;19952;-74
2023/12/06 13:13:35;;;;;;;;;;;3.20;99.90;;;;;;4959996;28;19929;-73
2023/12/06 13:16:01;;;;;;;;;;;3.20;99.90;;;;;;4985944;28;19925;-74
2023/12/06 13:18:26;;;;;;;;;;;3.20;99.90;;;;;;4963262;28;19935;-74
2023/12/06 13:20:52;;;;;;;;;;;3.20;99.90;;;;;;4993496;28;19940;-74
2023/12/06 13:23:18;;;;;;;;;;;3.30;99.90;;;;;;4958234;28;19932;-73
2023/12/06 13:25:44;;;;;;;;;;;3.20;99.90;;;;;;4990252;28;19932;-73
2023/12/06 13:28:10;;;;;;;;;;;3.30;99.90;;;;;;4951394;28;19925;-73
2023/12/06 13:30:36;;;;;;;;;;;3.20;99.90;;;;;;4980887;28;19925;-72
2023/12/06 13:33:02;;;;;;;;;;;3.30;99.90;;;;;;4952620;28;19924;-73
2023/12/06 13:35:28;;;;;;;;;;;3.20;99.90;;;;;;4991005;28;20610;-73
2023/12/06 13:37:57;;;;;;;;;;;3.20;99.90;;;;;;4951130;28;19933;-74
2023/12/06 13:40:24;;;;;;;;;;;3.20;99.90;;;;;;4980755;28;19936;-73
2023/12/06 13:42:51;;;;;;;;;;;3.30;99.90;;;;;;4950871;28;20390;-72
2023/12/06 13:45:17;;;;;;;;;;;3.20;99.90;;;;;;4998000;28;19932;-73
2023/12/06 13:47:42;;;;;;;;;;;3.30;99.90;;;;;;4952710;28;19929;-72
2023/12/06 13:50:09;;;;;;;;;;;3.30;99.90;;;;;;4993838;28;20599;-73
2023/12/06 13:52:35;;;;;;;;;;;3.20;99.90;;;;;;4949607;28;19925;-73
2023/12/06 13:55:04;;;;;;;;;;;3.20;99.90;;;;;;5000228;28;19936;-73
2023/12/06 13:57:30;;;;;;;;;;;3.30;99.90;;;;;;4968679;28;19925;-73
2023/12/06 13:59:56;;;;;;;;;;;3.30;99.90;;;;;;4959807;28;19925;-73
2023/12/06 14:02:22;;;;;;;;;;;3.30;99.90;;;;;;4980472;28;20397;-73
2023/12/06 14:04:49;;;;;;;;;;;3.30;99.90;;;;;;4990830;28;19925;-74
2023/12/06 14:07:15;;;;;;;;;;;3.20;99.90;;;;;;4989418;28;19924;-74
2023/12/06 14:09:41;;;;;;;;;;;3.30;99.90;;;;;;4944801;28;19999;-75
2023/12/06 14:12:07;;;;;;;;;;;3.20;99.90;;;;;;4978545;28;19925;-75
2023/12/06 14:14:33;;;;;;;;;;;3.30;99.90;;;;;;4956641;28;19936;-73
2023/12/06 14:16:59;;;;;;;;;;;3.30;99.90;;;;;;4978338;28;19925;-74
2023/12/06 14:19:24;;;;;;;;;;;3.20;99.90;;;;;;4955004;28;19955;-74
2023/12/06 14:21:50;;;;;;;;;;;3.20;99.90;;;;;;4980377;28;19940;-74
2023/12/06 14:24:16;;;;;;;;;;;3.20;99.90;;;;;;4955840;28;20029;-74
2023/12/06 14:26:43;;;;;;;;;;;3.20;99.90;;;;;;4980780;28;19936;-73